createdAt,value
2019-02-25T00:02:31.214Z,12.97
2019-02-25T00:05:00.448Z,15.40
2019-02-25T00:07:29.651Z,15.27
2019-02-25T00:09:58.889Z,14.33
2019-02-25T00:12:28.155Z,15.20
2019-02-25T00:14:57.363Z,15.50
2019-02-25T00:17:26.603Z,15.40
2019-02-25T00:19:55.879Z,15.20
2019-02-25T00:22:25.067Z,13.17
2019-02-25T00:24:54.279Z,12.70
2019-02-25T00:27:23.478Z,12.67
2019-02-25T00:29:52.735Z,12.43
2019-02-25T00:32:21.933Z,13.50
2019-02-25T00:34:51.186Z,13.07
2019-02-25T00:37:20.411Z,13.37
2019-02-25T00:39:49.738Z,15.87
2019-02-25T00:42:18.875Z,16.13
2019-02-25T00:44:48.116Z,13.07
2019-02-25T00:47:17.339Z,12.10
2019-02-25T00:49:46.592Z,12.13
2019-02-25T00:52:15.868Z,13.07
2019-02-25T00:54:45.093Z,12.50
2019-02-25T00:57:14.299Z,12.10
2019-02-25T00:59:43.523Z,12.63
2019-02-25T01:02:12.803Z,12.10
2019-02-25T01:04:42.076Z,11.90
2019-02-25T01:07:11.303Z,12.27
2019-02-25T01:09:40.473Z,12.27
2019-02-25T01:12:10.147Z,11.70
2019-02-25T01:14:39.367Z,12.80
2019-02-25T01:17:08.559Z,16.50
2019-02-25T01:19:37.784Z,12.73
2019-02-25T01:22:06.985Z,15.00
2019-02-25T01:24:36.293Z,15.93
2019-02-25T01:27:05.511Z,13.50
2019-02-25T01:29:34.695Z,11.80
2019-02-25T01:32:03.913Z,13.50
2019-02-25T01:34:33.112Z,13.03
2019-02-25T01:37:02.328Z,12.60
2019-02-25T01:39:31.435Z,13.27
2019-02-25T01:42:00.658Z,12.67
2019-02-25T01:44:29.887Z,13.03
2019-02-25T01:46:59.012Z,13.27
2019-02-25T01:49:28.355Z,12.13
2019-02-25T01:51:57.572Z,10.67
2019-02-25T01:54:26.798Z,15.00
2019-02-25T01:56:55.986Z,15.03
2019-02-25T01:59:25.493Z,13.07
2019-02-25T02:01:54.708Z,16.17
2019-02-25T02:04:24.007Z,15.50
2019-02-25T02:06:53.172Z,16.10
2019-02-25T02:09:22.397Z,15.03
2019-02-25T02:11:51.631Z,15.73
2019-02-25T02:14:20.775Z,15.67
2019-02-25T02:16:49.964Z,15.00
2019-02-25T02:19:19.180Z,15.00
2019-02-25T02:21:48.370Z,14.80
2019-02-25T02:24:17.498Z,14.40
2019-02-25T02:26:46.624Z,15.43
2019-02-25T02:29:15.851Z,16.43
2019-02-25T02:31:45.028Z,13.60
2019-02-25T02:34:14.245Z,15.43
2019-02-25T02:36:43.439Z,15.83
2019-02-25T02:39:12.691Z,17.40
2019-02-25T02:42:14.270Z,17.20
2019-02-25T02:44:44.607Z,18.10
2019-02-25T02:47:29.493Z,16.90
2019-02-25T02:49:58.946Z,15.17
2019-02-25T02:52:28.178Z,14.30
2019-02-25T02:54:57.419Z,14.00
2019-02-25T02:57:26.656Z,16.97
2019-02-25T02:59:55.850Z,17.43
2019-02-25T03:02:25.090Z,17.93
2019-02-25T03:04:54.392Z,17.00
2019-02-25T03:07:23.593Z,16.10
2019-02-25T03:09:52.850Z,17.40
2019-02-25T03:12:22.016Z,15.67
2019-02-25T03:14:51.202Z,15.67
2019-02-25T03:17:20.408Z,16.30
2019-02-25T03:19:49.588Z,14.53
2019-02-25T03:22:18.824Z,15.77
2019-02-25T03:24:47.998Z,16.17
2019-02-25T03:27:17.284Z,15.90
2019-02-25T03:29:46.479Z,16.13
2019-02-25T03:32:15.712Z,15.77
2019-02-25T03:34:44.998Z,16.70
2019-02-25T03:37:14.120Z,16.33
2019-02-25T03:39:43.440Z,15.90
2019-02-25T03:42:12.657Z,17.70
2019-02-25T03:44:41.860Z,16.20
2019-02-25T03:47:11.099Z,15.57
2019-02-25T03:49:40.299Z,17.17
2019-02-25T03:52:09.539Z,15.27
2019-02-25T03:54:38.753Z,16.77
2019-02-25T03:57:07.985Z,17.40
2019-02-25T03:59:37.210Z,17.83
2019-02-25T04:02:06.421Z,14.37
2019-02-25T04:04:35.645Z,13.67
2019-02-25T04:07:04.850Z,18.50
2019-02-25T04:09:34.079Z,18.10
2019-02-25T04:12:03.275Z,16.27
2019-02-25T04:14:32.495Z,17.03
2019-02-25T04:17:01.681Z,16.90
2019-02-25T04:19:30.883Z,16.77
2019-02-25T04:22:00.104Z,17.00
2019-02-25T04:24:29.327Z,16.60
2019-02-25T04:26:58.523Z,16.30
2019-02-25T04:29:27.760Z,17.60
2019-02-25T04:31:56.976Z,16.93
2019-02-25T04:34:26.251Z,15.00
2019-02-25T04:36:55.460Z,13.50
2019-02-25T04:39:24.688Z,13.30
2019-02-25T04:41:53.899Z,14.30
2019-02-25T04:44:23.119Z,13.70
2019-02-25T04:46:52.235Z,14.37
2019-02-25T04:49:21.480Z,17.27
2019-02-25T04:51:50.711Z,17.20
2019-02-25T04:54:19.957Z,17.27
2019-02-25T04:56:49.191Z,18.23
2019-02-25T04:59:18.693Z,17.00
2019-02-25T05:01:47.947Z,16.50
2019-02-25T05:04:17.155Z,17.30
2019-02-25T05:06:46.379Z,18.60
2019-02-25T05:09:15.612Z,17.33
2019-02-25T05:11:45.045Z,18.13
2019-02-25T05:14:14.315Z,17.13
2019-02-25T05:16:43.561Z,18.47
2019-02-25T05:19:12.788Z,18.50
2019-02-25T05:21:42.021Z,17.73
2019-02-25T05:24:11.216Z,18.30
2019-02-25T05:26:40.442Z,17.23
2019-02-25T05:29:09.654Z,17.77
2019-02-25T05:31:38.880Z,16.27
2019-02-25T05:34:08.158Z,18.30
2019-02-25T05:36:37.363Z,17.97
2019-02-25T05:39:07.640Z,18.20
2019-02-25T05:41:36.900Z,16.50
2019-02-25T05:44:08.466Z,18.83
2019-02-25T05:46:37.055Z,16.70
2019-02-25T05:49:06.345Z,17.53
2019-02-25T05:51:35.767Z,16.93
2019-02-25T05:54:04.987Z,18.43
2019-02-25T05:56:34.380Z,15.87
2019-02-25T05:59:03.576Z,14.50
2019-02-25T06:01:32.827Z,15.00
2019-02-25T06:04:02.064Z,12.83
2019-02-25T06:06:31.259Z,14.43
2019-02-25T06:09:00.580Z,15.03
2019-02-25T06:11:29.786Z,13.13
2019-02-25T06:13:59.015Z,14.33
2019-02-25T06:16:28.248Z,11.77
2019-02-25T06:18:57.475Z,13.60
2019-02-25T06:21:26.701Z,13.23
2019-02-25T06:23:55.931Z,15.73
2019-02-25T06:26:25.133Z,14.17
2019-02-25T06:28:54.361Z,14.30
2019-02-25T06:31:23.663Z,12.93
2019-02-25T06:33:52.916Z,11.50
2019-02-25T06:36:22.113Z,13.73
2019-02-25T06:38:51.420Z,16.10
2019-02-25T06:41:20.667Z,17.53
2019-02-25T06:43:49.904Z,14.30
2019-02-25T06:46:19.093Z,13.60
2019-02-25T06:48:48.425Z,13.03
2019-02-25T06:51:17.643Z,14.23
2019-02-25T06:53:46.843Z,13.30
2019-02-25T06:56:16.069Z,12.30
2019-02-25T06:58:45.309Z,12.27
2019-02-25T07:01:14.575Z,17.73
2019-02-25T07:03:45.427Z,17.23
2019-02-25T07:06:25.347Z,12.57
2019-02-25T07:09:10.831Z,13.37
2019-02-25T07:12:01.014Z,13.37
2019-02-25T07:14:35.487Z,14.70
2019-02-25T07:17:19.711Z,11.43
2019-02-25T07:20:04.037Z,13.00
2019-02-25T07:22:51.201Z,15.30
2019-02-25T07:25:38.534Z,18.13
2019-02-25T07:28:29.780Z,16.87
2019-02-25T07:31:16.754Z,17.40
2019-02-25T07:34:10.900Z,17.43
2019-02-25T07:36:55.392Z,16.70
2019-02-25T07:39:52.790Z,17.43
2019-02-25T07:42:39.566Z,18.33
2019-02-25T07:45:20.786Z,16.47
2019-02-25T07:48:11.860Z,14.70
2019-02-25T07:50:58.869Z,17.77
2019-02-25T07:53:55.716Z,15.97
2019-02-25T07:56:56.111Z,14.00
2019-02-25T07:59:31.309Z,16.50
2019-02-25T08:02:12.938Z,15.97
2019-02-25T08:04:56.139Z,15.47
2019-02-25T08:07:47.401Z,14.97
2019-02-25T08:10:35.728Z,13.97
2019-02-25T08:13:18.700Z,13.37
2019-02-25T08:16:03.655Z,13.93
2019-02-25T08:18:48.892Z,16.00
2019-02-25T08:21:32.857Z,15.87
2019-02-25T08:24:10.860Z,13.50
2019-02-25T08:26:48.581Z,14.43
2019-02-25T08:29:47.300Z,15.47
2019-02-25T08:32:37.163Z,15.57
2019-02-25T08:35:26.028Z,14.07
2019-02-25T08:38:04.576Z,14.13
2019-02-25T08:41:25.520Z,14.53
2019-02-25T08:44:02.595Z,13.87
2019-02-25T08:46:55.151Z,13.50
2019-02-25T08:49:30.759Z,13.30
2019-02-25T08:51:59.982Z,15.20
2019-02-25T08:54:29.350Z,14.53
2019-02-25T08:56:58.635Z,15.13
2019-02-25T08:59:27.875Z,16.43
2019-02-25T09:01:57.093Z,16.00
2019-02-25T09:04:26.323Z,16.93
2019-02-25T09:06:55.583Z,16.50
2019-02-25T09:09:24.792Z,17.50
2019-02-25T09:11:54.047Z,17.43
2019-02-25T09:14:23.252Z,17.03
2019-02-25T09:16:52.463Z,16.60
2019-02-25T09:19:21.710Z,15.97
2019-02-25T09:21:50.912Z,15.70
2019-02-25T09:24:20.147Z,16.17
2019-02-25T09:26:49.356Z,17.07
2019-02-25T09:29:18.571Z,16.03
2019-02-25T09:31:47.740Z,17.87
2019-02-25T09:34:16.968Z,15.93
2019-02-25T09:36:46.197Z,16.87
2019-02-25T09:39:16.842Z,15.73
2019-02-25T09:41:46.231Z,17.07
2019-02-25T09:44:15.463Z,16.90
2019-02-25T09:46:44.584Z,15.20
2019-02-25T09:49:13.820Z,15.63
2019-02-25T09:51:43.017Z,15.03
2019-02-25T09:54:12.235Z,15.53
2019-02-25T09:56:41.478Z,15.40
2019-02-25T09:59:10.699Z,16.07
2019-02-25T10:01:39.951Z,17.33
2019-02-25T10:04:09.167Z,15.47
2019-02-25T10:06:38.368Z,17.10
2019-02-25T10:09:08.491Z,15.03
2019-02-25T10:11:37.683Z,14.27
2019-02-25T10:14:06.926Z,17.20
2019-02-25T10:16:36.211Z,15.60
2019-02-25T10:19:05.433Z,18.03
2019-02-25T10:21:34.833Z,19.10
2019-02-25T10:24:04.033Z,16.67
2019-02-25T10:26:33.232Z,16.43
2019-02-25T10:29:02.484Z,17.60
2019-02-25T10:31:31.710Z,17.83
2019-02-25T10:34:00.940Z,16.37
2019-02-25T10:36:30.172Z,18.13
2019-02-25T10:38:59.459Z,17.40
2019-02-25T10:41:28.704Z,17.27
2019-02-25T10:43:58.490Z,16.97
2019-02-25T10:46:28.822Z,14.60
2019-02-25T10:48:59.190Z,16.13
2019-02-25T10:51:28.932Z,16.10
2019-02-25T10:53:58.095Z,15.43
2019-02-25T10:56:49.808Z,15.70
2019-02-25T10:59:19.819Z,15.27
2019-02-25T11:01:49.054Z,13.77
2019-02-25T11:04:20.069Z,15.10
2019-02-25T11:06:49.139Z,16.57
2019-02-25T11:09:48.172Z,16.03
2019-02-25T11:12:17.563Z,14.57
2019-02-25T11:14:46.785Z,16.03
2019-02-25T11:17:18.166Z,16.93
2019-02-25T11:19:47.243Z,15.90
2019-02-25T11:22:16.520Z,16.27
2019-02-25T11:24:47.399Z,16.40
2019-02-25T11:27:16.672Z,15.00
2019-02-25T11:29:46.625Z,14.77
2019-02-25T11:32:17.342Z,14.17
2019-02-25T11:34:47.660Z,14.40
2019-02-25T11:37:19.038Z,14.03
2019-02-25T11:39:47.828Z,13.50
2019-02-25T11:42:20.246Z,16.83
2019-02-25T11:44:47.939Z,15.27
2019-02-25T11:47:17.178Z,19.03
2019-02-25T11:49:46.400Z,15.43
2019-02-25T11:52:15.645Z,15.47
2019-02-25T11:54:44.824Z,16.37
2019-02-25T11:57:14.119Z,15.87
2019-02-25T11:59:43.256Z,16.03
2019-02-25T12:02:12.455Z,14.63
2019-02-25T12:04:41.748Z,15.23
2019-02-25T12:07:10.957Z,15.13
2019-02-25T12:09:40.243Z,13.97
2019-02-25T12:12:09.464Z,14.93
2019-02-25T12:14:38.699Z,15.27
2019-02-25T12:17:07.887Z,15.93
2019-02-25T12:19:37.119Z,14.53
2019-02-25T12:22:06.364Z,15.00
2019-02-25T12:24:35.584Z,14.70
2019-02-25T12:27:04.786Z,13.87
2019-02-25T12:29:34.035Z,12.50
2019-02-25T12:32:03.252Z,13.80
2019-02-25T12:34:32.484Z,13.40
2019-02-25T12:37:01.700Z,13.87
2019-02-25T12:39:30.920Z,13.80
2019-02-25T12:42:00.241Z,14.93
2019-02-25T12:44:29.491Z,14.23
2019-02-25T12:46:58.726Z,13.97
2019-02-25T12:49:27.924Z,12.93
2019-02-25T12:51:57.203Z,12.63
2019-02-25T12:54:26.390Z,13.90
2019-02-25T12:56:55.644Z,14.10
2019-02-25T12:59:24.859Z,13.57
2019-02-25T13:01:54.048Z,14.50
2019-02-25T13:04:23.259Z,14.73
2019-02-25T13:06:52.484Z,13.53
2019-02-25T13:09:21.697Z,15.43
2019-02-25T13:11:50.947Z,13.10
2019-02-25T13:14:20.213Z,14.33
2019-02-25T13:16:49.471Z,12.10
2019-02-25T13:19:18.700Z,13.20
2019-02-25T13:21:47.935Z,14.00
2019-02-25T13:24:17.147Z,13.90
2019-02-25T13:26:46.264Z,13.57
2019-02-25T13:29:15.591Z,13.27
2019-02-25T13:31:44.791Z,13.43
2019-02-25T13:34:14.041Z,13.17
2019-02-25T13:36:43.251Z,11.17
2019-02-25T13:39:12.439Z,11.60
2019-02-25T13:41:41.975Z,11.93
2019-02-25T13:44:11.187Z,13.20
2019-02-25T13:46:40.399Z,13.10
2019-02-25T13:49:09.575Z,13.80
2019-02-25T13:51:38.788Z,13.03
2019-02-25T13:54:08.028Z,11.63
2019-02-25T13:56:37.245Z,13.43
2019-02-25T13:59:06.742Z,11.80
2019-02-25T14:01:36.055Z,11.77
2019-02-25T14:04:05.358Z,11.57
2019-02-25T14:06:34.594Z,12.40
2019-02-25T14:09:05.271Z,12.27
2019-02-25T14:11:34.519Z,12.50
2019-02-25T14:14:03.742Z,12.23
2019-02-25T14:16:33.087Z,12.70
2019-02-25T14:19:02.484Z,12.83
2019-02-25T14:21:31.854Z,13.33
2019-02-25T14:24:01.092Z,15.00
2019-02-25T14:26:30.327Z,13.80
2019-02-25T14:28:59.628Z,14.53
2019-02-25T14:31:29.930Z,14.27
2019-02-25T14:33:59.252Z,14.10
2019-02-25T14:36:28.690Z,13.77
2019-02-25T14:38:59.467Z,12.63
2019-02-25T14:41:28.817Z,13.03
2019-02-25T14:43:58.863Z,13.00
2019-02-25T14:46:28.162Z,12.33
2019-02-25T14:48:57.380Z,13.90
2019-02-25T14:51:26.683Z,13.53
2019-02-25T14:53:55.995Z,14.60
2019-02-25T14:56:25.228Z,13.00
2019-02-25T14:58:54.599Z,12.73
2019-02-25T15:01:25.678Z,13.40
2019-02-25T15:03:55.988Z,13.30
2019-02-25T15:06:25.865Z,15.03
2019-02-25T15:08:57.520Z,13.70
2019-02-25T15:11:27.399Z,12.57
2019-02-25T15:13:56.627Z,13.80
2019-02-25T15:16:25.936Z,13.50
2019-02-25T15:18:55.151Z,13.17
2019-02-25T15:21:24.411Z,13.43
2019-02-25T15:23:53.638Z,12.37
2019-02-25T15:26:23.698Z,12.67
2019-02-25T15:28:56.125Z,12.97
2019-02-25T15:31:24.692Z,14.00
2019-02-25T15:33:53.934Z,14.03
2019-02-25T15:36:24.835Z,13.10
2019-02-25T15:38:54.108Z,13.80
2019-02-25T15:41:23.348Z,12.67
2019-02-25T15:43:52.632Z,14.37
2019-02-25T15:46:24.079Z,14.90
2019-02-25T15:48:53.411Z,14.13
2019-02-25T15:51:22.916Z,13.83
2019-02-25T15:53:53.968Z,13.67
2019-02-25T15:56:23.123Z,15.03
2019-02-25T15:58:52.448Z,15.03
2019-02-25T16:01:22.206Z,14.63
2019-02-25T16:03:51.435Z,14.93
2019-02-25T16:06:24.742Z,14.20
2019-02-25T16:08:54.309Z,15.07
2019-02-25T16:11:25.640Z,15.83
2019-02-25T16:13:55.719Z,15.10
2019-02-25T16:16:26.047Z,15.47
2019-02-25T16:18:55.688Z,15.13
2019-02-25T16:21:26.684Z,14.43
2019-02-25T16:23:59.342Z,14.50
2019-02-25T16:26:27.610Z,15.10
2019-02-25T16:28:59.588Z,14.50
2019-02-25T16:31:30.352Z,14.83
2019-02-25T16:33:59.568Z,18.20
2019-02-25T16:36:30.586Z,14.03
2019-02-25T16:39:05.213Z,14.13
2019-02-25T16:41:34.425Z,14.77
2019-02-25T16:44:04.963Z,14.37
2019-02-25T16:46:38.678Z,16.33
2019-02-25T16:49:07.151Z,14.27
2019-02-25T16:51:37.547Z,14.90
2019-02-25T16:54:11.002Z,13.70
2019-02-25T16:56:38.814Z,16.80
2019-02-25T16:59:10.789Z,16.23
2019-02-25T17:01:39.920Z,16.10
2019-02-25T17:04:12.230Z,15.93
2019-02-25T17:06:41.274Z,14.23
2019-02-25T17:09:16.120Z,14.17
2019-02-25T17:11:48.835Z,14.00
2019-02-25T17:14:19.171Z,13.07
2019-02-25T17:16:49.568Z,12.53
2019-02-25T17:19:19.662Z,13.23
2019-02-25T17:21:50.672Z,12.70
2019-02-25T17:24:23.697Z,13.80
2019-02-25T17:26:51.681Z,12.47
2019-02-25T17:29:23.091Z,14.50
2019-02-25T17:31:53.230Z,15.87
2019-02-25T17:34:23.971Z,15.97
2019-02-25T17:36:54.906Z,14.40
2019-02-25T17:39:24.801Z,16.27
2019-02-25T17:41:54.254Z,16.37
2019-02-25T17:44:27.862Z,15.50
2019-02-25T17:46:55.335Z,15.47
2019-02-25T17:49:26.401Z,15.80
2019-02-25T17:51:57.354Z,15.63
2019-02-25T17:54:29.030Z,14.67
2019-02-25T17:56:58.543Z,14.13
2019-02-25T17:59:29.421Z,15.27
2019-02-25T18:01:58.879Z,14.37
2019-02-25T18:04:30.357Z,15.27
2019-02-25T18:06:59.834Z,14.80
2019-02-25T18:09:29.411Z,15.43
2019-02-25T18:12:00.035Z,14.97
2019-02-25T18:14:30.511Z,14.40
2019-02-25T18:16:59.722Z,14.47
2019-02-25T18:19:29.614Z,16.03
2019-02-25T18:21:59.384Z,12.40
2019-02-25T18:24:28.832Z,13.40
2019-02-25T18:26:58.592Z,13.00
2019-02-25T18:29:27.964Z,14.37
2019-02-25T18:31:58.067Z,14.33
2019-02-25T18:34:28.037Z,13.33
2019-02-25T18:36:58.511Z,13.93
2019-02-25T18:39:30.013Z,15.70
2019-02-25T18:41:59.467Z,15.20
2019-02-25T18:44:29.106Z,14.10
2019-02-25T18:46:59.886Z,16.27
2019-02-25T18:49:30.403Z,13.93
2019-02-25T18:52:00.427Z,15.53
2019-02-25T18:54:29.704Z,15.10
2019-02-25T18:57:00.749Z,15.50
2019-02-25T18:59:30.102Z,14.97
2019-02-25T19:01:59.304Z,16.00
2019-02-25T19:04:28.519Z,14.77
2019-02-25T19:06:57.735Z,16.37
2019-02-25T19:09:27.667Z,15.77
2019-02-25T19:11:57.938Z,14.57
2019-02-25T19:14:28.756Z,15.37
2019-02-25T19:16:59.616Z,16.43
2019-02-25T19:19:28.987Z,17.10
2019-02-25T19:21:58.212Z,16.30
2019-02-25T19:24:27.387Z,16.07
2019-02-25T19:26:56.733Z,17.40
2019-02-25T19:29:28.051Z,15.93
2019-02-25T19:32:00.645Z,18.67
2019-02-25T19:34:28.017Z,16.87
2019-02-25T19:37:00.292Z,17.53
2019-02-25T19:39:28.181Z,17.60
2019-02-25T19:41:58.459Z,22.37
2019-02-25T19:44:29.809Z,20.60
2019-02-25T19:46:59.217Z,22.67
2019-02-25T19:49:28.419Z,26.33
2019-02-25T19:51:57.770Z,26.57
2019-02-25T19:54:27.003Z,24.43
2019-02-25T19:56:57.986Z,24.70
2019-02-25T19:59:29.150Z,24.77
2019-02-25T20:01:58.207Z,25.50
2019-02-25T20:04:27.427Z,22.67
2019-02-25T20:06:58.110Z,20.07
2019-02-25T20:09:27.583Z,21.47
2019-02-25T20:11:57.375Z,22.67
2019-02-25T20:14:26.816Z,21.17
2019-02-25T20:16:56.006Z,22.20
2019-02-25T20:19:25.239Z,23.97
2019-02-25T20:21:55.181Z,25.83
2019-02-25T20:24:25.683Z,28.03
2019-02-25T20:26:57.836Z,29.20
2019-02-25T20:29:25.917Z,27.73
2019-02-25T20:31:56.176Z,27.37
2019-02-25T20:34:27.524Z,27.33
2019-02-25T20:36:57.819Z,26.57
2019-02-25T20:39:27.703Z,27.47
2019-02-25T20:41:58.626Z,23.90
2019-02-25T20:44:28.437Z,23.57
2019-02-25T20:47:00.126Z,25.20
2019-02-25T20:49:31.872Z,23.83
2019-02-25T20:52:02.317Z,20.57
2019-02-25T20:54:32.381Z,20.27
2019-02-25T20:57:02.534Z,21.03
2019-02-25T20:59:33.132Z,22.37
2019-02-25T21:02:04.866Z,23.00
2019-02-25T21:04:36.454Z,24.27
2019-02-25T21:07:06.128Z,24.57
2019-02-25T21:09:35.815Z,22.63
2019-02-25T21:12:06.121Z,24.57
2019-02-25T21:14:35.693Z,24.53
2019-02-25T21:17:06.238Z,23.93
2019-02-25T21:19:36.157Z,24.83
2019-02-25T21:22:07.211Z,24.10
2019-02-25T21:24:37.575Z,22.50
2019-02-25T21:27:08.590Z,22.67
2019-02-25T21:29:39.132Z,22.43
2019-02-25T21:32:10.522Z,21.13
2019-02-25T21:34:40.247Z,21.67
2019-02-25T21:37:09.451Z,18.77
2019-02-25T21:39:39.198Z,20.10
2019-02-25T21:42:12.608Z,19.77
2019-02-25T21:44:40.375Z,21.03
2019-02-25T21:47:09.589Z,21.37
2019-02-25T21:49:40.473Z,20.10
2019-02-25T21:52:10.853Z,19.93
2019-02-25T21:54:40.687Z,19.87
2019-02-25T21:57:09.927Z,20.33
2019-02-25T21:59:41.109Z,17.70
2019-02-25T22:02:10.000Z,21.07
2019-02-25T22:04:42.387Z,22.10
2019-02-25T22:07:10.100Z,21.07
2019-02-25T22:09:43.135Z,23.80
2019-02-25T22:12:10.156Z,22.03
2019-02-25T22:14:41.103Z,20.33
2019-02-25T22:17:10.394Z,20.10
2019-02-25T22:19:41.472Z,20.27
2019-02-25T22:22:11.333Z,21.67
2019-02-25T22:24:40.662Z,20.33
2019-02-25T22:27:11.808Z,19.60
2019-02-25T22:29:41.275Z,19.50
2019-02-25T22:32:11.607Z,19.20
2019-02-25T22:34:40.848Z,19.17
2019-02-25T22:37:12.429Z,19.67
2019-02-25T22:39:41.002Z,21.07
2019-02-25T22:42:11.601Z,18.33
2019-02-25T22:44:41.038Z,19.70
2019-02-25T22:47:11.625Z,20.47
2019-02-25T22:49:41.094Z,18.83
2019-02-25T22:52:10.295Z,23.43
2019-02-25T22:54:41.288Z,19.93
2019-02-25T22:57:10.468Z,25.27
2019-02-25T22:59:39.770Z,25.03
2019-02-25T23:02:10.808Z,23.47
2019-02-25T23:04:41.001Z,23.93
2019-02-25T23:07:11.086Z,23.13
2019-02-25T23:09:42.850Z,23.40
2019-02-25T23:12:11.258Z,23.77
2019-02-25T23:14:40.871Z,22.53
2019-02-25T23:17:13.126Z,22.30
2019-02-25T23:19:43.161Z,22.10
2019-02-25T23:22:13.193Z,21.67
2019-02-25T23:24:43.826Z,23.10
2019-02-25T23:27:13.057Z,22.47
2019-02-25T23:29:42.370Z,20.90
2019-02-25T23:32:11.573Z,21.77
2019-02-25T23:34:42.607Z,22.20
2019-02-25T23:37:14.756Z,23.60
2019-02-25T23:39:43.150Z,23.23
2019-02-25T23:42:14.178Z,22.57
2019-02-25T23:44:44.235Z,24.13
2019-02-25T23:47:13.467Z,26.67
2019-02-25T23:49:43.864Z,24.00
2019-02-25T23:52:13.534Z,27.17
2019-02-25T23:54:45.242Z,25.57
2019-02-25T23:57:14.738Z,26.77
2019-02-25T23:59:46.498Z,26.23
